sensor_id;sensor_type;location;lat;lon;timestamp;P1;durP1;ratioP1;P2;durP2;ratioP2
17592;SDS011;8915;51.760;14.300;2023-05-07T00:00:23;8.43;;;5.67;;
17592;SDS011;8915;51.760;14.300;2023-05-07T00:02:49;8.20;;;5.57;;
17592;SDS011;8915;51.760;14.300;2023-05-07T00:05:17;6.37;;;5.17;;
17592;SDS011;8915;51.760;14.300;2023-05-07T00:07:43;6.20;;;5.00;;
17592;SDS011;8915;51.760;14.300;2023-05-07T00:10:10;6.07;;;5.23;;
17592;SDS011;8915;51.760;14.300;2023-05-07T00:12:37;6.73;;;5.43;;
17592;SDS011;8915;51.760;14.300;2023-05-07T00:15:04;7.50;;;6.07;;
17592;SDS011;8915;51.760;14.300;2023-05-07T00:17:32;8.73;;;6.50;;
17592;SDS011;8915;51.760;14.300;2023-05-07T00:23:02;7.50;;;5.17;;
17592;SDS011;8915;51.760;14.300;2023-05-07T00:25:29;7.27;;;5.53;;
17592;SDS011;8915;51.760;14.300;2023-05-07T00:27:55;6.13;;;5.53;;
17592;SDS011;8915;51.760;14.300;2023-05-07T00:30:22;6.03;;;5.27;;
17592;SDS011;8915;51.760;14.300;2023-05-07T00:32:48;7.97;;;5.77;;
17592;SDS011;8915;51.760;14.300;2023-05-07T00:35:16;6.50;;;5.60;;
17592;SDS011;8915;51.760;14.300;2023-05-07T00:37:44;5.83;;;5.00;;
17592;SDS011;8915;51.760;14.300;2023-05-07T00:40:11;9.07;;;6.37;;
17592;SDS011;8915;51.760;14.300;2023-05-07T00:42:37;6.93;;;5.27;;
17592;SDS011;8915;51.760;14.300;2023-05-07T00:45:04;7.83;;;5.50;;
17592;SDS011;8915;51.760;14.300;2023-05-07T00:47:32;10.20;;;6.50;;
17592;SDS011;8915;51.760;14.300;2023-05-07T00:49:59;6.53;;;5.80;;
17592;SDS011;8915;51.760;14.300;2023-05-07T00:52:26;6.60;;;4.97;;
17592;SDS011;8915;51.760;14.300;2023-05-07T00:54:57;6.77;;;5.63;;
17592;SDS011;8915;51.760;14.300;2023-05-07T00:57:32;9.30;;;5.23;;
17592;SDS011;8915;51.760;14.300;2023-05-07T00:59:59;7.80;;;5.43;;
17592;SDS011;8915;51.760;14.300;2023-05-07T01:02:25;5.77;;;5.03;;
17592;SDS011;8915;51.760;14.300;2023-05-07T01:04:58;6.50;;;5.63;;
17592;SDS011;8915;51.760;14.300;2023-05-07T01:07:37;6.73;;;5.73;;
17592;SDS011;8915;51.760;14.300;2023-05-07T01:10:07;8.23;;;5.80;;
17592;SDS011;8915;51.760;14.300;2023-05-07T01:12:35;7.60;;;5.77;;
17592;SDS011;8915;51.760;14.300;2023-05-07T01:15:03;7.23;;;5.53;;
17592;SDS011;8915;51.760;14.300;2023-05-07T01:17:32;7.57;;;5.33;;
17592;SDS011;8915;51.760;14.300;2023-05-07T01:20:00;12.17;;;6.70;;
17592;SDS011;8915;51.760;14.300;2023-05-07T01:22:30;9.90;;;6.33;;
17592;SDS011;8915;51.760;14.300;2023-05-07T01:24:57;8.20;;;6.30;;
17592;SDS011;8915;51.760;14.300;2023-05-07T01:27:27;10.27;;;6.53;;
17592;SDS011;8915;51.760;14.300;2023-05-07T01:29:54;10.27;;;6.57;;
17592;SDS011;8915;51.760;14.300;2023-05-07T01:32:23;9.13;;;7.00;;
17592;SDS011;8915;51.760;14.300;2023-05-07T01:34:54;8.87;;;6.53;;
17592;SDS011;8915;51.760;14.300;2023-05-07T01:37:29;10.43;;;6.93;;
17592;SDS011;8915;51.760;14.300;2023-05-07T01:40:13;11.43;;;6.73;;
17592;SDS011;8915;51.760;14.300;2023-05-07T01:42:40;8.53;;;6.57;;
17592;SDS011;8915;51.760;14.300;2023-05-07T01:45:14;13.17;;;7.30;;
17592;SDS011;8915;51.760;14.300;2023-05-07T01:47:54;11.07;;;7.10;;
17592;SDS011;8915;51.760;14.300;2023-05-07T01:50:21;9.60;;;7.30;;
17592;SDS011;8915;51.760;14.300;2023-05-07T01:52:50;10.50;;;7.37;;
17592;SDS011;8915;51.760;14.300;2023-05-07T01:55:17;11.60;;;7.63;;
17592;SDS011;8915;51.760;14.300;2023-05-07T01:57:43;10.50;;;7.40;;
17592;SDS011;8915;51.760;14.300;2023-05-07T02:00:10;9.53;;;7.63;;
17592;SDS011;8915;51.760;14.300;2023-05-07T02:02:43;10.33;;;7.53;;
17592;SDS011;8915;51.760;14.300;2023-05-07T02:05:22;12.57;;;7.80;;
17592;SDS011;8915;51.760;14.300;2023-05-07T02:07:57;10.10;;;7.47;;
17592;SDS011;8915;51.760;14.300;2023-05-07T02:10:26;12.53;;;7.80;;
17592;SDS011;8915;51.760;14.300;2023-05-07T02:12:52;12.47;;;7.77;;
17592;SDS011;8915;51.760;14.300;2023-05-07T02:15:19;14.93;;;8.07;;
17592;SDS011;8915;51.760;14.300;2023-05-07T02:17:58;13.73;;;8.70;;
17592;SDS011;8915;51.760;14.300;2023-05-07T02:20:26;14.10;;;8.67;;
17592;SDS011;8915;51.760;14.300;2023-05-07T02:22:53;9.83;;;8.17;;
17592;SDS011;8915;51.760;14.300;2023-05-07T02:25:20;14.37;;;9.17;;
17592;SDS011;8915;51.760;14.300;2023-05-07T02:27:47;13.90;;;8.43;;
17592;SDS011;8915;51.760;14.300;2023-05-07T02:30:14;10.53;;;7.90;;
17592;SDS011;8915;51.760;14.300;2023-05-07T02:32:42;11.87;;;8.27;;
17592;SDS011;8915;51.760;14.300;2023-05-07T02:35:08;14.33;;;8.93;;
17592;SDS011;8915;51.760;14.300;2023-05-07T02:37:35;13.80;;;8.83;;
17592;SDS011;8915;51.760;14.300;2023-05-07T02:40:02;11.87;;;8.10;;
17592;SDS011;8915;51.760;14.300;2023-05-07T02:42:31;12.30;;;8.70;;
17592;SDS011;8915;51.760;14.300;2023-05-07T02:44:57;13.60;;;8.43;;
17592;SDS011;8915;51.760;14.300;2023-05-07T02:47:24;11.83;;;8.90;;
17592;SDS011;8915;51.760;14.300;2023-05-07T02:49:53;12.93;;;8.37;;
17592;SDS011;8915;51.760;14.300;2023-05-07T02:52:20;14.90;;;9.30;;
17592;SDS011;8915;51.760;14.300;2023-05-07T02:54:46;15.73;;;9.67;;
17592;SDS011;8915;51.760;14.300;2023-05-07T02:57:13;14.90;;;8.93;;
17592;SDS011;8915;51.760;14.300;2023-05-07T02:59:41;13.80;;;9.47;;
17592;SDS011;8915;51.760;14.300;2023-05-07T03:02:07;15.63;;;9.23;;
17592;SDS011;8915;51.760;14.300;2023-05-07T03:04:35;15.67;;;8.97;;
17592;SDS011;8915;51.760;14.300;2023-05-07T03:07:01;15.80;;;9.77;;
17592;SDS011;8915;51.760;14.300;2023-05-07T03:09:28;14.27;;;9.67;;
17592;SDS011;8915;51.760;14.300;2023-05-07T03:11:54;12.97;;;9.73;;
17592;SDS011;8915;51.760;14.300;2023-05-07T03:14:22;13.83;;;9.30;;
17592;SDS011;8915;51.760;14.300;2023-05-07T03:16:53;16.13;;;8.93;;
17592;SDS011;8915;51.760;14.300;2023-05-07T03:19:20;13.23;;;8.60;;
17592;SDS011;8915;51.760;14.300;2023-05-07T03:21:46;13.77;;;8.97;;
17592;SDS011;8915;51.760;14.300;2023-05-07T03:24:13;18.00;;;9.47;;
17592;SDS011;8915;51.760;14.300;2023-05-07T03:26:41;11.73;;;9.30;;
17592;SDS011;8915;51.760;14.300;2023-05-07T03:29:07;14.63;;;9.30;;
17592;SDS011;8915;51.760;14.300;2023-05-07T03:31:34;14.27;;;8.73;;
17592;SDS011;8915;51.760;14.300;2023-05-07T03:34:02;18.00;;;9.80;;
17592;SDS011;8915;51.760;14.300;2023-05-07T03:36:29;13.37;;;9.03;;
17592;SDS011;8915;51.760;14.300;2023-05-07T03:38:56;11.83;;;8.73;;
17592;SDS011;8915;51.760;14.300;2023-05-07T03:41:25;15.17;;;8.90;;
17592;SDS011;8915;51.760;14.300;2023-05-07T03:43:53;11.80;;;8.50;;
17592;SDS011;8915;51.760;14.300;2023-05-07T03:46:20;13.07;;;9.37;;
17592;SDS011;8915;51.760;14.300;2023-05-07T03:48:46;13.97;;;8.17;;
17592;SDS011;8915;51.760;14.300;2023-05-07T03:51:15;15.47;;;8.87;;
17592;SDS011;8915;51.760;14.300;2023-05-07T03:53:42;15.20;;;8.83;;
17592;SDS011;8915;51.760;14.300;2023-05-07T03:56:08;11.57;;;8.43;;
17592;SDS011;8915;51.760;14.300;2023-05-07T03:58:37;10.70;;;8.23;;
17592;SDS011;8915;51.760;14.300;2023-05-07T04:01:31;10.63;;;8.60;;
17592;SDS011;8915;51.760;14.300;2023-05-07T04:03:58;10.73;;;8.33;;
17592;SDS011;8915;51.760;14.300;2023-05-07T04:06:27;13.73;;;9.30;;
17592;SDS011;8915;51.760;14.300;2023-05-07T04:08:53;14.47;;;9.50;;
17592;SDS011;8915;51.760;14.300;2023-05-07T04:11:20;12.50;;;8.43;;
17592;SDS011;8915;51.760;14.300;2023-05-07T04:13:46;13.43;;;9.40;;
17592;SDS011;8915;51.760;14.300;2023-05-07T04:16:15;17.53;;;8.80;;
17592;SDS011;8915;51.760;14.300;2023-05-07T04:18:42;11.20;;;8.40;;
17592;SDS011;8915;51.760;14.300;2023-05-07T04:21:14;11.53;;;8.50;;
17592;SDS011;8915;51.760;14.300;2023-05-07T04:23:43;20.23;;;10.10;;
17592;SDS011;8915;51.760;14.300;2023-05-07T04:26:12;14.90;;;9.37;;
17592;SDS011;8915;51.760;14.300;2023-05-07T04:28:41;14.77;;;9.33;;
17592;SDS011;8915;51.760;14.300;2023-05-07T04:31:08;11.67;;;8.40;;
17592;SDS011;8915;51.760;14.300;2023-05-07T04:33:38;14.87;;;9.43;;
17592;SDS011;8915;51.760;14.300;2023-05-07T04:36:07;15.37;;;11.07;;
17592;SDS011;8915;51.760;14.300;2023-05-07T04:38:41;15.83;;;9.13;;
17592;SDS011;8915;51.760;14.300;2023-05-07T04:41:09;12.77;;;9.30;;
17592;SDS011;8915;51.760;14.300;2023-05-07T04:43:39;14.73;;;9.63;;
17592;SDS011;8915;51.760;14.300;2023-05-07T04:46:06;16.17;;;8.80;;
17592;SDS011;8915;51.760;14.300;2023-05-07T04:48:33;14.37;;;8.60;;
17592;SDS011;8915;51.760;14.300;2023-05-07T04:51:03;12.80;;;9.53;;
17592;SDS011;8915;51.760;14.300;2023-05-07T04:53:29;12.40;;;9.00;;
17592;SDS011;8915;51.760;14.300;2023-05-07T04:55:57;12.30;;;7.97;;
17592;SDS011;8915;51.760;14.300;2023-05-07T04:58:36;12.53;;;9.07;;
17592;SDS011;8915;51.760;14.300;2023-05-07T05:01:03;12.67;;;9.50;;
17592;SDS011;8915;51.760;14.300;2023-05-07T05:03:30;13.43;;;9.00;;
17592;SDS011;8915;51.760;14.300;2023-05-07T05:05:57;10.90;;;8.10;;
17592;SDS011;8915;51.760;14.300;2023-05-07T05:08:26;13.40;;;9.37;;
17592;SDS011;8915;51.760;14.300;2023-05-07T05:10:52;11.07;;;7.87;;
17592;SDS011;8915;51.760;14.300;2023-05-07T05:13:19;10.77;;;7.63;;
17592;SDS011;8915;51.760;14.300;2023-05-07T05:15:47;11.60;;;7.73;;
17592;SDS011;8915;51.760;14.300;2023-05-07T05:18:14;9.30;;;7.57;;
17592;SDS011;8915;51.760;14.300;2023-05-07T05:20:40;9.57;;;7.17;;
17592;SDS011;8915;51.760;14.300;2023-05-07T05:23:07;13.30;;;8.00;;
17592;SDS011;8915;51.760;14.300;2023-05-07T05:25:34;11.23;;;7.33;;
17592;SDS011;8915;51.760;14.300;2023-05-07T05:28:01;10.33;;;6.57;;
17592;SDS011;8915;51.760;14.300;2023-05-07T05:30:29;9.17;;;7.30;;
17592;SDS011;8915;51.760;14.300;2023-05-07T05:32:56;12.50;;;8.07;;
17592;SDS011;8915;51.760;14.300;2023-05-07T05:35:25;13.70;;;7.90;;
17592;SDS011;8915;51.760;14.300;2023-05-07T05:37:52;10.97;;;8.27;;
17592;SDS011;8915;51.760;14.300;2023-05-07T05:40:18;14.47;;;7.87;;
17592;SDS011;8915;51.760;14.300;2023-05-07T05:42:45;11.97;;;8.07;;
17592;SDS011;8915;51.760;14.300;2023-05-07T05:45:12;9.43;;;7.43;;
17592;SDS011;8915;51.760;14.300;2023-05-07T05:47:40;10.33;;;7.23;;
17592;SDS011;8915;51.760;14.300;2023-05-07T05:50:09;10.70;;;7.50;;
17592;SDS011;8915;51.760;14.300;2023-05-07T05:52:35;14.30;;;8.40;;
17592;SDS011;8915;51.760;14.300;2023-05-07T05:55:02;10.70;;;7.20;;
17592;SDS011;8915;51.760;14.300;2023-05-07T05:57:29;11.27;;;8.00;;
17592;SDS011;8915;51.760;14.300;2023-05-07T05:59:55;8.83;;;7.00;;
17592;SDS011;8915;51.760;14.300;2023-05-07T06:02:23;10.27;;;7.53;;
17592;SDS011;8915;51.760;14.300;2023-05-07T06:04:49;9.80;;;7.00;;
17592;SDS011;8915;51.760;14.300;2023-05-07T06:07:20;10.20;;;6.47;;
17592;SDS011;8915;51.760;14.300;2023-05-07T06:09:48;10.00;;;7.43;;
17592;SDS011;8915;51.760;14.300;2023-05-07T06:12:15;7.73;;;6.60;;
17592;SDS011;8915;51.760;14.300;2023-05-07T06:14:42;11.03;;;7.07;;
17592;SDS011;8915;51.760;14.300;2023-05-07T06:17:09;10.40;;;6.73;;
17592;SDS011;8915;51.760;14.300;2023-05-07T06:19:36;10.00;;;6.93;;
17592;SDS011;8915;51.760;14.300;2023-05-07T06:22:03;7.93;;;6.20;;
17592;SDS011;8915;51.760;14.300;2023-05-07T06:24:33;10.07;;;6.77;;
17592;SDS011;8915;51.760;14.300;2023-05-07T06:27:00;10.10;;;6.90;;
17592;SDS011;8915;51.760;14.300;2023-05-07T06:29:28;9.17;;;6.87;;
17592;SDS011;8915;51.760;14.300;2023-05-07T06:32:05;9.40;;;7.07;;
17592;SDS011;8915;51.760;14.300;2023-05-07T06:34:32;7.77;;;6.37;;
17592;SDS011;8915;51.760;14.300;2023-05-07T06:36:59;8.97;;;6.73;;
17592;SDS011;8915;51.760;14.300;2023-05-07T06:39:41;9.47;;;7.53;;
17592;SDS011;8915;51.760;14.300;2023-05-07T06:42:08;9.80;;;6.87;;
17592;SDS011;8915;51.760;14.300;2023-05-07T06:44:39;8.23;;;6.43;;
17592;SDS011;8915;51.760;14.300;2023-05-07T06:47:09;9.47;;;6.57;;
17592;SDS011;8915;51.760;14.300;2023-05-07T06:49:38;10.23;;;6.63;;
17592;SDS011;8915;51.760;14.300;2023-05-07T06:52:04;10.80;;;7.00;;
17592;SDS011;8915;51.760;14.300;2023-05-07T06:54:31;9.50;;;6.23;;
17592;SDS011;8915;51.760;14.300;2023-05-07T06:56:59;8.83;;;6.43;;
17592;SDS011;8915;51.760;14.300;2023-05-07T06:59:27;8.20;;;6.57;;
17592;SDS011;8915;51.760;14.300;2023-05-07T07:01:54;10.40;;;6.93;;
17592;SDS011;8915;51.760;14.300;2023-05-07T07:04:20;9.57;;;7.10;;
17592;SDS011;8915;51.760;14.300;2023-05-07T07:06:53;11.93;;;6.50;;
17592;SDS011;8915;51.760;14.300;2023-05-07T07:09:21;8.63;;;6.53;;
17592;SDS011;8915;51.760;14.300;2023-05-07T07:11:48;7.60;;;6.17;;
17592;SDS011;8915;51.760;14.300;2023-05-07T07:14:16;8.17;;;5.73;;
17592;SDS011;8915;51.760;14.300;2023-05-07T07:16:47;10.83;;;5.97;;
17592;SDS011;8915;51.760;14.300;2023-05-07T07:19:16;9.83;;;6.60;;
17592;SDS011;8915;51.760;14.300;2023-05-07T07:22:01;8.70;;;6.37;;
17592;SDS011;8915;51.760;14.300;2023-05-07T07:24:33;8.67;;;6.17;;
17592;SDS011;8915;51.760;14.300;2023-05-07T07:27:31;11.23;;;6.87;;
17592;SDS011;8915;51.760;14.300;2023-05-07T07:30:01;11.17;;;6.80;;
17592;SDS011;8915;51.760;14.300;2023-05-07T07:32:31;9.93;;;6.27;;
17592;SDS011;8915;51.760;14.300;2023-05-07T07:34:58;12.50;;;7.80;;
17592;SDS011;8915;51.760;14.300;2023-05-07T07:37:26;8.20;;;6.30;;
17592;SDS011;8915;51.760;14.300;2023-05-07T07:39:52;17.73;;;10.00;;
17592;SDS011;8915;51.760;14.300;2023-05-07T07:42:20;25.17;;;14.40;;
17592;SDS011;8915;51.760;14.300;2023-05-07T07:44:47;15.23;;;9.50;;
17592;SDS011;8915;51.760;14.300;2023-05-07T07:47:18;9.90;;;7.10;;
17592;SDS011;8915;51.760;14.300;2023-05-07T07:49:45;15.53;;;8.60;;
17592;SDS011;8915;51.760;14.300;2023-05-07T07:52:12;8.07;;;5.83;;
17592;SDS011;8915;51.760;14.300;2023-05-07T07:54:39;7.07;;;5.43;;
17592;SDS011;8915;51.760;14.300;2023-05-07T07:57:06;8.80;;;5.50;;
17592;SDS011;8915;51.760;14.300;2023-05-07T07:59:33;7.17;;;4.97;;
17592;SDS011;8915;51.760;14.300;2023-05-07T08:02:01;7.50;;;5.17;;
17592;SDS011;8915;51.760;14.300;2023-05-07T08:04:30;8.33;;;5.60;;
17592;SDS011;8915;51.760;14.300;2023-05-07T08:07:01;5.73;;;5.10;;
17592;SDS011;8915;51.760;14.300;2023-05-07T08:09:29;5.73;;;4.93;;
17592;SDS011;8915;51.760;14.300;2023-05-07T08:11:58;6.07;;;4.50;;
17592;SDS011;8915;51.760;14.300;2023-05-07T08:14:26;6.77;;;4.47;;
17592;SDS011;8915;51.760;14.300;2023-05-07T08:16:53;5.47;;;4.17;;
17592;SDS011;8915;51.760;14.300;2023-05-07T08:19:20;5.37;;;4.50;;
17592;SDS011;8915;51.760;14.300;2023-05-07T08:21:49;4.57;;;3.93;;
17592;SDS011;8915;51.760;14.300;2023-05-07T08:24:17;4.47;;;4.07;;
17592;SDS011;8915;51.760;14.300;2023-05-07T08:26:45;9.63;;;4.33;;
17592;SDS011;8915;51.760;14.300;2023-05-07T08:29:12;5.47;;;4.00;;
17592;SDS011;8915;51.760;14.300;2023-05-07T08:31:38;5.93;;;4.37;;
17592;SDS011;8915;51.760;14.300;2023-05-07T08:34:05;4.40;;;3.80;;
17592;SDS011;8915;51.760;14.300;2023-05-07T08:36:37;5.03;;;3.70;;
17592;SDS011;8915;51.760;14.300;2023-05-07T08:39:05;6.87;;;4.10;;
17592;SDS011;8915;51.760;14.300;2023-05-07T08:41:31;5.43;;;3.80;;
17592;SDS011;8915;51.760;14.300;2023-05-07T08:43:59;4.30;;;3.80;;
17592;SDS011;8915;51.760;14.300;2023-05-07T08:46:30;5.80;;;3.80;;
17592;SDS011;8915;51.760;14.300;2023-05-07T08:48:58;3.53;;;3.23;;
17592;SDS011;8915;51.760;14.300;2023-05-07T08:51:25;4.23;;;3.83;;
17592;SDS011;8915;51.760;14.300;2023-05-07T08:53:52;3.70;;;3.40;;
17592;SDS011;8915;51.760;14.300;2023-05-07T08:56:28;5.07;;;3.30;;
17592;SDS011;8915;51.760;14.300;2023-05-07T08:58:54;4.73;;;3.30;;
17592;SDS011;8915;51.760;14.300;2023-05-07T09:01:24;3.50;;;3.20;;
17592;SDS011;8915;51.760;14.300;2023-05-07T09:03:53;4.07;;;2.97;;
17592;SDS011;8915;51.760;14.300;2023-05-07T09:06:21;4.07;;;3.30;;
17592;SDS011;8915;51.760;14.300;2023-05-07T09:08:49;4.40;;;3.50;;
17592;SDS011;8915;51.760;14.300;2023-05-07T09:11:16;4.97;;;3.53;;
17592;SDS011;8915;51.760;14.300;2023-05-07T09:13:48;3.70;;;3.23;;
17592;SDS011;8915;51.760;14.300;2023-05-07T09:16:15;4.60;;;3.20;;
17592;SDS011;8915;51.760;14.300;2023-05-07T09:18:48;3.53;;;3.00;;
17592;SDS011;8915;51.760;14.300;2023-05-07T09:21:17;11.53;;;9.13;;
17592;SDS011;8915;51.760;14.300;2023-05-07T09:23:47;5.77;;;4.63;;
17592;SDS011;8915;51.760;14.300;2023-05-07T09:26:15;4.50;;;2.70;;
17592;SDS011;8915;51.760;14.300;2023-05-07T09:28:42;6.33;;;3.73;;
17592;SDS011;8915;51.760;14.300;2023-05-07T09:31:12;2.30;;;2.10;;
17592;SDS011;8915;51.760;14.300;2023-05-07T09:33:40;3.20;;;2.47;;
17592;SDS011;8915;51.760;14.300;2023-05-07T09:36:09;12.40;;;5.53;;
17592;SDS011;8915;51.760;14.300;2023-05-07T09:38:38;3.43;;;2.70;;
17592;SDS011;8915;51.760;14.300;2023-05-07T09:41:05;3.47;;;2.60;;
17592;SDS011;8915;51.760;14.300;2023-05-07T09:43:39;4.53;;;3.60;;
17592;SDS011;8915;51.760;14.300;2023-05-07T09:46:10;3.63;;;2.43;;
17592;SDS011;8915;51.760;14.300;2023-05-07T09:48:44;3.33;;;2.90;;
17592;SDS011;8915;51.760;14.300;2023-05-07T09:51:15;3.47;;;2.93;;
17592;SDS011;8915;51.760;14.300;2023-05-07T09:53:47;4.77;;;3.00;;
17592;SDS011;8915;51.760;14.300;2023-05-07T09:56:14;6.00;;;3.40;;
17592;SDS011;8915;51.760;14.300;2023-05-07T09:58:41;3.70;;;3.40;;
17592;SDS011;8915;51.760;14.300;2023-05-07T10:01:10;3.30;;;3.00;;
17592;SDS011;8915;51.760;14.300;2023-05-07T10:03:41;4.00;;;2.80;;
17592;SDS011;8915;51.760;14.300;2023-05-07T10:06:10;3.87;;;3.07;;
17592;SDS011;8915;51.760;14.300;2023-05-07T10:08:39;4.37;;;3.20;;
17592;SDS011;8915;51.760;14.300;2023-05-07T10:11:07;3.57;;;2.70;;
17592;SDS011;8915;51.760;14.300;2023-05-07T10:13:34;3.53;;;3.20;;
17592;SDS011;8915;51.760;14.300;2023-05-07T10:16:03;4.30;;;3.40;;
17592;SDS011;8915;51.760;14.300;2023-05-07T10:18:35;3.67;;;3.20;;
17592;SDS011;8915;51.760;14.300;2023-05-07T10:21:11;4.27;;;3.47;;
17592;SDS011;8915;51.760;14.300;2023-05-07T10:23:43;3.90;;;3.43;;
17592;SDS011;8915;51.760;14.300;2023-05-07T10:26:11;4.00;;;3.20;;
17592;SDS011;8915;51.760;14.300;2023-05-07T10:28:41;3.03;;;2.70;;
17592;SDS011;8915;51.760;14.300;2023-05-07T10:31:15;3.27;;;2.87;;
17592;SDS011;8915;51.760;14.300;2023-05-07T10:33:53;4.10;;;3.00;;
17592;SDS011;8915;51.760;14.300;2023-05-07T10:36:24;3.80;;;3.40;;
17592;SDS011;8915;51.760;14.300;2023-05-07T10:38:52;4.73;;;4.10;;
17592;SDS011;8915;51.760;14.300;2023-05-07T10:41:19;5.90;;;4.53;;
17592;SDS011;8915;51.760;14.300;2023-05-07T10:43:46;4.20;;;3.80;;
17592;SDS011;8915;51.760;14.300;2023-05-07T10:46:27;7.87;;;5.17;;
17592;SDS011;8915;51.760;14.300;2023-05-07T10:49:06;5.73;;;3.37;;
17592;SDS011;8915;51.760;14.300;2023-05-07T10:51:44;3.80;;;3.40;;
17592;SDS011;8915;51.760;14.300;2023-05-07T10:54:21;4.13;;;2.73;;
17592;SDS011;8915;51.760;14.300;2023-05-07T10:57:06;3.27;;;2.97;;
17592;SDS011;8915;51.760;14.300;2023-05-07T11:00:04;2.83;;;2.50;;
17592;SDS011;8915;51.760;14.300;2023-05-07T11:03:16;3.60;;;2.70;;
17592;SDS011;8915;51.760;14.300;2023-05-07T11:06:08;3.67;;;3.20;;
17592;SDS011;8915;51.760;14.300;2023-05-07T11:08:53;2.97;;;2.60;;
17592;SDS011;8915;51.760;14.300;2023-05-07T11:11:43;3.30;;;2.80;;
17592;SDS011;8915;51.760;14.300;2023-05-07T11:14:14;5.77;;;2.90;;
17592;SDS011;8915;51.760;14.300;2023-05-07T11:17:16;3.57;;;3.17;;
17592;SDS011;8915;51.760;14.300;2023-05-07T11:19:49;3.57;;;3.10;;
17592;SDS011;8915;51.760;14.300;2023-05-07T11:22:37;3.50;;;3.20;;
17592;SDS011;8915;51.760;14.300;2023-05-07T11:25:25;4.10;;;3.07;;
17592;SDS011;8915;51.760;14.300;2023-05-07T11:28:08;3.60;;;3.07;;
17592;SDS011;8915;51.760;14.300;2023-05-07T11:30:42;3.63;;;3.17;;
17592;SDS011;8915;51.760;14.300;2023-05-07T11:33:11;4.60;;;3.00;;
17592;SDS011;8915;51.760;14.300;2023-05-07T11:35:39;3.53;;;3.23;;
17592;SDS011;8915;51.760;14.300;2023-05-07T11:38:10;5.70;;;3.17;;
17592;SDS011;8915;51.760;14.300;2023-05-07T11:40:48;4.07;;;2.83;;
17592;SDS011;8915;51.760;14.300;2023-05-07T11:43:15;3.20;;;2.90;;
17592;SDS011;8915;51.760;14.300;2023-05-07T11:45:42;4.97;;;3.40;;
17592;SDS011;8915;51.760;14.300;2023-05-07T11:48:10;4.67;;;4.10;;
17592;SDS011;8915;51.760;14.300;2023-05-07T11:50:48;3.20;;;2.80;;
17592;SDS011;8915;51.760;14.300;2023-05-07T11:53:16;4.23;;;3.43;;
17592;SDS011;8915;51.760;14.300;2023-05-07T11:55:43;3.13;;;2.80;;
17592;SDS011;8915;51.760;14.300;2023-05-07T11:58:11;3.00;;;2.70;;
17592;SDS011;8915;51.760;14.300;2023-05-07T12:00:50;4.33;;;3.63;;
17592;SDS011;8915;51.760;14.300;2023-05-07T12:03:18;3.90;;;3.27;;
17592;SDS011;8915;51.760;14.300;2023-05-07T12:05:50;4.63;;;3.07;;
17592;SDS011;8915;51.760;14.300;2023-05-07T12:08:21;4.97;;;3.37;;
17592;SDS011;8915;51.760;14.300;2023-05-07T12:10:48;2.77;;;2.40;;
17592;SDS011;8915;51.760;14.300;2023-05-07T12:13:37;2.70;;;2.40;;
17592;SDS011;8915;51.760;14.300;2023-05-07T12:16:19;3.23;;;2.47;;
17592;SDS011;8915;51.760;14.300;2023-05-07T12:18:58;3.70;;;2.20;;
17592;SDS011;8915;51.760;14.300;2023-05-07T12:21:25;4.30;;;2.70;;
17592;SDS011;8915;51.760;14.300;2023-05-07T12:23:51;2.20;;;2.00;;
17592;SDS011;8915;51.760;14.300;2023-05-07T12:26:20;2.07;;;1.90;;
17592;SDS011;8915;51.760;14.300;2023-05-07T12:28:47;2.20;;;1.90;;
17592;SDS011;8915;51.760;14.300;2023-05-07T12:31:15;3.23;;;2.17;;
17592;SDS011;8915;51.760;14.300;2023-05-07T12:33:42;2.30;;;1.97;;
17592;SDS011;8915;51.760;14.300;2023-05-07T12:36:08;2.03;;;1.83;;
17592;SDS011;8915;51.760;14.300;2023-05-07T12:38:42;2.33;;;2.13;;
17592;SDS011;8915;51.760;14.300;2023-05-07T12:41:09;3.90;;;1.97;;
17592;SDS011;8915;51.760;14.300;2023-05-07T12:43:37;3.17;;;2.00;;
17592;SDS011;8915;51.760;14.300;2023-05-07T12:46:04;2.17;;;1.97;;
17592;SDS011;8915;51.760;14.300;2023-05-07T12:48:33;3.20;;;2.37;;
17592;SDS011;8915;51.760;14.300;2023-05-07T12:51:01;4.57;;;2.50;;
17592;SDS011;8915;51.760;14.300;2023-05-07T12:53:29;3.30;;;2.20;;
17592;SDS011;8915;51.760;14.300;2023-05-07T12:55:56;2.20;;;2.00;;
17592;SDS011;8915;51.760;14.300;2023-05-07T12:58:25;2.67;;;2.00;;
17592;SDS011;8915;51.760;14.300;2023-05-07T13:00:53;3.03;;;2.40;;
17592;SDS011;8915;51.760;14.300;2023-05-07T13:03:26;2.20;;;2.00;;
17592;SDS011;8915;51.760;14.300;2023-05-07T13:05:55;2.97;;;2.37;;
17592;SDS011;8915;51.760;14.300;2023-05-07T13:08:24;2.10;;;1.90;;
17592;SDS011;8915;51.760;14.300;2023-05-07T13:10:52;2.37;;;2.17;;
17592;SDS011;8915;51.760;14.300;2023-05-07T13:13:18;2.53;;;1.90;;
17592;SDS011;8915;51.760;14.300;2023-05-07T13:15:45;2.30;;;2.00;;
17592;SDS011;8915;51.760;14.300;2023-05-07T13:18:11;2.30;;;2.07;;
17592;SDS011;8915;51.760;14.300;2023-05-07T13:20:38;2.43;;;1.90;;
17592;SDS011;8915;51.760;14.300;2023-05-07T13:23:05;2.30;;;2.07;;
17592;SDS011;8915;51.760;14.300;2023-05-07T13:25:32;1.90;;;1.80;;
17592;SDS011;8915;51.760;14.300;2023-05-07T13:27:58;3.37;;;2.80;;
17592;SDS011;8915;51.760;14.300;2023-05-07T13:30:25;4.10;;;2.50;;
17592;SDS011;8915;51.760;14.300;2023-05-07T13:32:51;4.27;;;2.80;;
17592;SDS011;8915;51.760;14.300;2023-05-07T13:35:19;3.20;;;2.47;;
17592;SDS011;8915;51.760;14.300;2023-05-07T13:37:46;3.30;;;2.60;;
17592;SDS011;8915;51.760;14.300;2023-05-07T13:40:16;2.63;;;2.30;;
17592;SDS011;8915;51.760;14.300;2023-05-07T13:42:43;4.47;;;2.73;;
17592;SDS011;8915;51.760;14.300;2023-05-07T13:45:10;2.83;;;2.50;;
17592;SDS011;8915;51.760;14.300;2023-05-07T13:47:43;2.87;;;2.30;;
17592;SDS011;8915;51.760;14.300;2023-05-07T13:50:10;2.67;;;2.30;;
17592;SDS011;8915;51.760;14.300;2023-05-07T13:52:41;2.33;;;2.13;;
17592;SDS011;8915;51.760;14.300;2023-05-07T13:57:55;3.17;;;2.63;;
17592;SDS011;8915;51.760;14.300;2023-05-07T14:00:29;2.70;;;2.50;;
17592;SDS011;8915;51.760;14.300;2023-05-07T14:03:00;4.40;;;2.60;;
17592;SDS011;8915;51.760;14.300;2023-05-07T14:05:26;3.30;;;3.00;;
17592;SDS011;8915;51.760;14.300;2023-05-07T14:07:55;3.30;;;3.00;;
17592;SDS011;8915;51.760;14.300;2023-05-07T14:10:28;3.03;;;2.70;;
17592;SDS011;8915;51.760;14.300;2023-05-07T14:13:01;3.97;;;2.87;;
17592;SDS011;8915;51.760;14.300;2023-05-07T14:15:30;3.37;;;3.07;;
17592;SDS011;8915;51.760;14.300;2023-05-07T14:18:00;2.70;;;2.50;;
17592;SDS011;8915;51.760;14.300;2023-05-07T14:20:38;2.90;;;2.60;;
17592;SDS011;8915;51.760;14.300;2023-05-07T14:23:18;2.97;;;2.67;;
17592;SDS011;8915;51.760;14.300;2023-05-07T14:25:58;2.90;;;2.60;;
17592;SDS011;8915;51.760;14.300;2023-05-07T14:28:34;2.87;;;2.60;;
17592;SDS011;8915;51.760;14.300;2023-05-07T14:31:00;3.07;;;2.70;;
17592;SDS011;8915;51.760;14.300;2023-05-07T14:33:27;3.07;;;2.70;;
17592;SDS011;8915;51.760;14.300;2023-05-07T14:35:53;3.23;;;2.93;;
17592;SDS011;8915;51.760;14.300;2023-05-07T14:38:20;3.13;;;2.83;;
17592;SDS011;8915;51.760;14.300;2023-05-07T14:40:46;3.17;;;2.87;;
17592;SDS011;8915;51.760;14.300;2023-05-07T14:43:14;4.13;;;3.23;;
17592;SDS011;8915;51.760;14.300;2023-05-07T14:45:41;4.13;;;3.10;;
17592;SDS011;8915;51.760;14.300;2023-05-07T14:48:07;3.50;;;3.20;;
17592;SDS011;8915;51.760;14.300;2023-05-07T14:50:34;3.60;;;3.23;;
17592;SDS011;8915;51.760;14.300;2023-05-07T14:53:00;4.03;;;3.53;;
17592;SDS011;8915;51.760;14.300;2023-05-07T14:55:27;4.00;;;3.20;;
17592;SDS011;8915;51.760;14.300;2023-05-07T14:57:53;3.33;;;3.03;;
17592;SDS011;8915;51.760;14.300;2023-05-07T15:00:22;3.87;;;3.47;;
17592;SDS011;8915;51.760;14.300;2023-05-07T15:02:49;4.00;;;3.60;;